sensor_id;sensor_type;location;lat;lon;timestamp;P1;durP1;ratioP1;P2;durP2;ratioP2
15806;SDS011;8005;51.368;6.140;2023-05-10T00:00:51;29.83;;;17.45;;
15806;SDS011;8005;51.368;6.140;2023-05-10T00:02:23;29.85;;;16.45;;
15806;SDS011;8005;51.368;6.140;2023-05-10T00:03:56;29.77;;;16.35;;
15806;SDS011;8005;51.368;6.140;2023-05-10T00:05:28;31.45;;;15.90;;
15806;SDS011;8005;51.368;6.140;2023-05-10T00:07:00;27.45;;;14.27;;
15806;SDS011;8005;51.368;6.140;2023-05-10T00:08:32;27.37;;;14.57;;
15806;SDS011;8005;51.368;6.140;2023-05-10T00:10:04;26.10;;;14.40;;
15806;SDS011;8005;51.368;6.140;2023-05-10T00:11:36;29.00;;;14.90;;
15806;SDS011;8005;51.368;6.140;2023-05-10T00:13:08;28.63;;;16.05;;
15806;SDS011;8005;51.368;6.140;2023-05-10T00:14:40;27.77;;;14.15;;
15806;SDS011;8005;51.368;6.140;2023-05-10T00:16:12;25.23;;;13.43;;
15806;SDS011;8005;51.368;6.140;2023-05-10T00:17:44;23.58;;;13.68;;
15806;SDS011;8005;51.368;6.140;2023-05-10T00:19:17;22.42;;;13.30;;
15806;SDS011;8005;51.368;6.140;2023-05-10T00:20:48;21.17;;;11.95;;
15806;SDS011;8005;51.368;6.140;2023-05-10T00:22:21;21.40;;;12.30;;
15806;SDS011;8005;51.368;6.140;2023-05-10T00:23:53;21.30;;;11.43;;
15806;SDS011;8005;51.368;6.140;2023-05-10T00:25:24;20.65;;;11.07;;
15806;SDS011;8005;51.368;6.140;2023-05-10T00:26:56;21.10;;;11.10;;
15806;SDS011;8005;51.368;6.140;2023-05-10T00:28:28;22.57;;;12.53;;
15806;SDS011;8005;51.368;6.140;2023-05-10T00:30:00;19.60;;;10.55;;
15806;SDS011;8005;51.368;6.140;2023-05-10T00:31:33;19.40;;;11.07;;
15806;SDS011;8005;51.368;6.140;2023-05-10T00:33:05;21.33;;;11.05;;
15806;SDS011;8005;51.368;6.140;2023-05-10T00:34:37;17.80;;;10.73;;
15806;SDS011;8005;51.368;6.140;2023-05-10T00:36:09;18.23;;;10.05;;
15806;SDS011;8005;51.368;6.140;2023-05-10T00:37:41;17.67;;;9.73;;
15806;SDS011;8005;51.368;6.140;2023-05-10T00:39:13;19.20;;;11.18;;
15806;SDS011;8005;51.368;6.140;2023-05-10T00:40:46;17.85;;;10.00;;
15806;SDS011;8005;51.368;6.140;2023-05-10T00:42:25;18.23;;;9.35;;
15806;SDS011;8005;51.368;6.140;2023-05-10T00:43:58;17.15;;;9.48;;
15806;SDS011;8005;51.368;6.140;2023-05-10T00:45:33;16.58;;;9.65;;
15806;SDS011;8005;51.368;6.140;2023-05-10T00:47:07;16.05;;;9.38;;
15806;SDS011;8005;51.368;6.140;2023-05-10T00:48:39;17.23;;;9.27;;
15806;SDS011;8005;51.368;6.140;2023-05-10T00:50:11;15.57;;;9.20;;
15806;SDS011;8005;51.368;6.140;2023-05-10T00:51:43;15.85;;;8.77;;
15806;SDS011;8005;51.368;6.140;2023-05-10T00:53:16;18.58;;;10.18;;
15806;SDS011;8005;51.368;6.140;2023-05-10T00:54:48;18.73;;;9.77;;
15806;SDS011;8005;51.368;6.140;2023-05-10T00:56:22;17.02;;;8.40;;
15806;SDS011;8005;51.368;6.140;2023-05-10T00:57:54;16.10;;;9.60;;
15806;SDS011;8005;51.368;6.140;2023-05-10T00:59:27;17.60;;;9.68;;
15806;SDS011;8005;51.368;6.140;2023-05-10T01:02:33;17.77;;;8.98;;
15806;SDS011;8005;51.368;6.140;2023-05-10T01:04:08;17.75;;;9.32;;
15806;SDS011;8005;51.368;6.140;2023-05-10T01:05:41;13.80;;;8.85;;
15806;SDS011;8005;51.368;6.140;2023-05-10T01:07:13;17.52;;;9.35;;
15806;SDS011;8005;51.368;6.140;2023-05-10T01:08:45;15.95;;;9.23;;
15806;SDS011;8005;51.368;6.140;2023-05-10T01:10:18;14.88;;;8.73;;
15806;SDS011;8005;51.368;6.140;2023-05-10T01:11:51;17.45;;;9.80;;
15806;SDS011;8005;51.368;6.140;2023-05-10T01:15:01;16.98;;;9.85;;
15806;SDS011;8005;51.368;6.140;2023-05-10T01:16:38;16.92;;;9.27;;
15806;SDS011;8005;51.368;6.140;2023-05-10T01:18:10;17.48;;;9.38;;
15806;SDS011;8005;51.368;6.140;2023-05-10T01:19:42;16.45;;;9.45;;
15806;SDS011;8005;51.368;6.140;2023-05-10T01:25:26;19.92;;;9.68;;
15806;SDS011;8005;51.368;6.140;2023-05-10T01:28:58;17.10;;;9.32;;
15806;SDS011;8005;51.368;6.140;2023-05-10T01:33:01;20.17;;;10.43;;
15806;SDS011;8005;51.368;6.140;2023-05-10T01:34:54;15.75;;;10.48;;
15806;SDS011;8005;51.368;6.140;2023-05-10T01:36:51;21.05;;;11.57;;
15806;SDS011;8005;51.368;6.140;2023-05-10T01:38:38;17.48;;;11.07;;
15806;SDS011;8005;51.368;6.140;2023-05-10T01:43:37;21.73;;;11.68;;
15806;SDS011;8005;51.368;6.140;2023-05-10T01:47:09;22.95;;;13.35;;
15806;SDS011;8005;51.368;6.140;2023-05-10T01:48:47;23.55;;;13.60;;
15806;SDS011;8005;51.368;6.140;2023-05-10T01:50:22;29.88;;;15.98;;
15806;SDS011;8005;51.368;6.140;2023-05-10T01:51:59;22.67;;;13.52;;
15806;SDS011;8005;51.368;6.140;2023-05-10T01:53:35;28.05;;;14.77;;
15806;SDS011;8005;51.368;6.140;2023-05-10T01:55:10;26.73;;;14.23;;
15806;SDS011;8005;51.368;6.140;2023-05-10T01:56:47;28.67;;;13.98;;
15806;SDS011;8005;51.368;6.140;2023-05-10T01:58:22;22.52;;;13.55;;
15806;SDS011;8005;51.368;6.140;2023-05-10T01:59:57;23.98;;;13.48;;
15806;SDS011;8005;51.368;6.140;2023-05-10T02:01:30;25.45;;;15.15;;
15806;SDS011;8005;51.368;6.140;2023-05-10T02:03:04;24.38;;;12.85;;
15806;SDS011;8005;51.368;6.140;2023-05-10T02:04:38;21.48;;;13.25;;
15806;SDS011;8005;51.368;6.140;2023-05-10T02:06:11;26.98;;;13.35;;
15806;SDS011;8005;51.368;6.140;2023-05-10T02:07:44;24.90;;;13.32;;
15806;SDS011;8005;51.368;6.140;2023-05-10T02:09:17;24.73;;;12.30;;
15806;SDS011;8005;51.368;6.140;2023-05-10T02:10:51;25.52;;;13.82;;
15806;SDS011;8005;51.368;6.140;2023-05-10T02:12:26;25.45;;;13.88;;
15806;SDS011;8005;51.368;6.140;2023-05-10T02:13:58;26.05;;;13.57;;
15806;SDS011;8005;51.368;6.140;2023-05-10T02:15:32;29.98;;;15.13;;
15806;SDS011;8005;51.368;6.140;2023-05-10T02:17:05;29.38;;;14.32;;
15806;SDS011;8005;51.368;6.140;2023-05-10T02:18:37;26.55;;;14.15;;
15806;SDS011;8005;51.368;6.140;2023-05-10T02:20:13;26.65;;;14.57;;
15806;SDS011;8005;51.368;6.140;2023-05-10T02:21:46;30.35;;;16.25;;
15806;SDS011;8005;51.368;6.140;2023-05-10T02:23:18;29.40;;;15.02;;
15806;SDS011;8005;51.368;6.140;2023-05-10T02:24:51;28.38;;;14.80;;
15806;SDS011;8005;51.368;6.140;2023-05-10T02:26:27;31.45;;;15.52;;
15806;SDS011;8005;51.368;6.140;2023-05-10T02:28:01;29.20;;;15.93;;
15806;SDS011;8005;51.368;6.140;2023-05-10T02:29:35;31.63;;;14.88;;
15806;SDS011;8005;51.368;6.140;2023-05-10T02:31:08;27.27;;;15.43;;
15806;SDS011;8005;51.368;6.140;2023-05-10T02:32:42;32.50;;;16.65;;
15806;SDS011;8005;51.368;6.140;2023-05-10T02:34:14;30.35;;;16.10;;
15806;SDS011;8005;51.368;6.140;2023-05-10T02:35:46;31.53;;;16.73;;
15806;SDS011;8005;51.368;6.140;2023-05-10T02:37:19;32.67;;;16.65;;
15806;SDS011;8005;51.368;6.140;2023-05-10T02:38:52;30.48;;;15.25;;
15806;SDS011;8005;51.368;6.140;2023-05-10T02:40:27;31.83;;;15.93;;
15806;SDS011;8005;51.368;6.140;2023-05-10T02:42:00;34.10;;;17.23;;
15806;SDS011;8005;51.368;6.140;2023-05-10T02:43:33;38.80;;;18.00;;
15806;SDS011;8005;51.368;6.140;2023-05-10T02:45:07;39.40;;;18.33;;
15806;SDS011;8005;51.368;6.140;2023-05-10T02:46:42;35.75;;;18.02;;
15806;SDS011;8005;51.368;6.140;2023-05-10T02:48:15;35.20;;;18.42;;
15806;SDS011;8005;51.368;6.140;2023-05-10T02:49:47;40.92;;;19.05;;
15806;SDS011;8005;51.368;6.140;2023-05-10T02:51:19;42.45;;;20.70;;
15806;SDS011;8005;51.368;6.140;2023-05-10T02:52:53;37.65;;;19.42;;
15806;SDS011;8005;51.368;6.140;2023-05-10T02:54:29;44.25;;;21.25;;
15806;SDS011;8005;51.368;6.140;2023-05-10T02:56:09;44.45;;;20.95;;
15806;SDS011;8005;51.368;6.140;2023-05-10T02:57:47;44.50;;;22.50;;
15806;SDS011;8005;51.368;6.140;2023-05-10T02:59:21;42.70;;;21.63;;
15806;SDS011;8005;51.368;6.140;2023-05-10T03:00:53;46.25;;;21.65;;
15806;SDS011;8005;51.368;6.140;2023-05-10T03:02:25;49.50;;;23.13;;
15806;SDS011;8005;51.368;6.140;2023-05-10T03:03:58;47.33;;;23.17;;
15806;SDS011;8005;51.368;6.140;2023-05-10T03:05:30;46.22;;;22.30;;
15806;SDS011;8005;51.368;6.140;2023-05-10T03:07:04;48.95;;;23.92;;
15806;SDS011;8005;51.368;6.140;2023-05-10T03:08:37;46.70;;;22.80;;
15806;SDS011;8005;51.368;6.140;2023-05-10T03:10:10;50.72;;;24.20;;
15806;SDS011;8005;51.368;6.140;2023-05-10T03:11:50;52.88;;;23.65;;
15806;SDS011;8005;51.368;6.140;2023-05-10T03:19:24;54.63;;;25.75;;
15806;SDS011;8005;51.368;6.140;2023-05-10T03:21:01;62.55;;;27.70;;
15806;SDS011;8005;51.368;6.140;2023-05-10T03:22:38;63.10;;;28.00;;
15806;SDS011;8005;51.368;6.140;2023-05-10T03:24:13;69.90;;;28.63;;
15806;SDS011;8005;51.368;6.140;2023-05-10T03:25:48;67.68;;;29.10;;
15806;SDS011;8005;51.368;6.140;2023-05-10T03:27:22;63.08;;;27.92;;
15806;SDS011;8005;51.368;6.140;2023-05-10T03:28:54;69.28;;;28.92;;
15806;SDS011;8005;51.368;6.140;2023-05-10T03:30:28;65.25;;;28.45;;
15806;SDS011;8005;51.368;6.140;2023-05-10T03:32:01;62.65;;;28.48;;
15806;SDS011;8005;51.368;6.140;2023-05-10T03:33:35;67.03;;;29.95;;
15806;SDS011;8005;51.368;6.140;2023-05-10T03:35:10;64.15;;;28.67;;
15806;SDS011;8005;51.368;6.140;2023-05-10T03:36:43;63.85;;;29.35;;
15806;SDS011;8005;51.368;6.140;2023-05-10T03:38:15;74.28;;;31.08;;
15806;SDS011;8005;51.368;6.140;2023-05-10T03:39:47;71.67;;;31.13;;
15806;SDS011;8005;51.368;6.140;2023-05-10T03:41:19;73.65;;;31.13;;
15806;SDS011;8005;51.368;6.140;2023-05-10T03:42:52;69.63;;;30.50;;
15806;SDS011;8005;51.368;6.140;2023-05-10T03:44:24;67.53;;;31.20;;
15806;SDS011;8005;51.368;6.140;2023-05-10T03:45:56;67.03;;;32.30;;
15806;SDS011;8005;51.368;6.140;2023-05-10T03:47:28;66.50;;;31.13;;
15806;SDS011;8005;51.368;6.140;2023-05-10T03:49:02;67.97;;;31.65;;
15806;SDS011;8005;51.368;6.140;2023-05-10T03:50:36;66.55;;;31.23;;
15806;SDS011;8005;51.368;6.140;2023-05-10T03:52:08;71.40;;;32.03;;
15806;SDS011;8005;51.368;6.140;2023-05-10T03:53:40;71.80;;;31.47;;
15806;SDS011;8005;51.368;6.140;2023-05-10T03:55:12;71.13;;;32.97;;
15806;SDS011;8005;51.368;6.140;2023-05-10T03:56:44;69.63;;;33.97;;
15806;SDS011;8005;51.368;6.140;2023-05-10T03:58:19;70.13;;;32.17;;
15806;SDS011;8005;51.368;6.140;2023-05-10T03:59:51;69.85;;;30.92;;
15806;SDS011;8005;51.368;6.140;2023-05-10T04:01:23;68.87;;;31.10;;
15806;SDS011;8005;51.368;6.140;2023-05-10T04:02:55;60.07;;;29.73;;
15806;SDS011;8005;51.368;6.140;2023-05-10T04:04:27;58.75;;;30.27;;
15806;SDS011;8005;51.368;6.140;2023-05-10T04:06:02;65.70;;;32.23;;
15806;SDS011;8005;51.368;6.140;2023-05-10T04:07:34;69.50;;;32.72;;
15806;SDS011;8005;51.368;6.140;2023-05-10T04:09:06;73.60;;;32.85;;
15806;SDS011;8005;51.368;6.140;2023-05-10T04:10:39;68.82;;;33.20;;
15806;SDS011;8005;51.368;6.140;2023-05-10T04:12:11;71.28;;;32.72;;
15806;SDS011;8005;51.368;6.140;2023-05-10T04:13:43;72.95;;;32.53;;
15806;SDS011;8005;51.368;6.140;2023-05-10T04:15:15;65.73;;;31.70;;
15806;SDS011;8005;51.368;6.140;2023-05-10T04:16:47;76.87;;;33.70;;
15806;SDS011;8005;51.368;6.140;2023-05-10T04:18:19;82.05;;;36.67;;
15806;SDS011;8005;51.368;6.140;2023-05-10T04:19:51;76.17;;;34.27;;
15806;SDS011;8005;51.368;6.140;2023-05-10T04:21:26;76.78;;;35.17;;
15806;SDS011;8005;51.368;6.140;2023-05-10T04:22:58;81.88;;;35.28;;
15806;SDS011;8005;51.368;6.140;2023-05-10T04:24:30;80.13;;;35.30;;
15806;SDS011;8005;51.368;6.140;2023-05-10T04:26:02;79.57;;;34.85;;
15806;SDS011;8005;51.368;6.140;2023-05-10T04:27:34;83.22;;;35.72;;
15806;SDS011;8005;51.368;6.140;2023-05-10T04:29:05;77.95;;;35.78;;
15806;SDS011;8005;51.368;6.140;2023-05-10T04:30:38;85.97;;;35.35;;
15806;SDS011;8005;51.368;6.140;2023-05-10T04:32:10;72.82;;;34.20;;
15806;SDS011;8005;51.368;6.140;2023-05-10T04:33:42;88.60;;;36.67;;
15806;SDS011;8005;51.368;6.140;2023-05-10T04:35:14;90.03;;;36.45;;
15806;SDS011;8005;51.368;6.140;2023-05-10T04:36:46;92.05;;;35.30;;
15806;SDS011;8005;51.368;6.140;2023-05-10T04:38:18;86.03;;;36.30;;
15806;SDS011;8005;51.368;6.140;2023-05-10T04:39:50;85.13;;;36.30;;
15806;SDS011;8005;51.368;6.140;2023-05-10T04:41:22;90.07;;;37.88;;
15806;SDS011;8005;51.368;6.140;2023-05-10T04:42:54;89.60;;;38.20;;
15806;SDS011;8005;51.368;6.140;2023-05-10T04:44:26;89.75;;;38.10;;
15806;SDS011;8005;51.368;6.140;2023-05-10T04:45:58;78.67;;;33.57;;
15806;SDS011;8005;51.368;6.140;2023-05-10T04:47:30;95.03;;;38.80;;
15806;SDS011;8005;51.368;6.140;2023-05-10T04:49:02;89.97;;;36.85;;
15806;SDS011;8005;51.368;6.140;2023-05-10T04:50:34;95.43;;;38.83;;
15806;SDS011;8005;51.368;6.140;2023-05-10T04:52:06;84.97;;;35.78;;
15806;SDS011;8005;51.368;6.140;2023-05-10T04:53:38;95.03;;;37.92;;
15806;SDS011;8005;51.368;6.140;2023-05-10T04:55:10;87.40;;;37.17;;
15806;SDS011;8005;51.368;6.140;2023-05-10T04:56:42;87.73;;;36.67;;
15806;SDS011;8005;51.368;6.140;2023-05-10T04:58:14;90.53;;;37.72;;
15806;SDS011;8005;51.368;6.140;2023-05-10T04:59:46;86.22;;;35.90;;
15806;SDS011;8005;51.368;6.140;2023-05-10T05:01:20;89.72;;;35.80;;
15806;SDS011;8005;51.368;6.140;2023-05-10T05:02:52;89.88;;;37.33;;
15806;SDS011;8005;51.368;6.140;2023-05-10T05:04:24;83.05;;;34.53;;
15806;SDS011;8005;51.368;6.140;2023-05-10T05:05:57;81.93;;;36.05;;
15806;SDS011;8005;51.368;6.140;2023-05-10T05:07:29;86.43;;;36.30;;
15806;SDS011;8005;51.368;6.140;2023-05-10T05:09:02;84.60;;;37.35;;
15806;SDS011;8005;51.368;6.140;2023-05-10T05:10:34;93.88;;;36.17;;
15806;SDS011;8005;51.368;6.140;2023-05-10T05:12:06;86.25;;;35.53;;
15806;SDS011;8005;51.368;6.140;2023-05-10T05:13:38;84.37;;;35.23;;
15806;SDS011;8005;51.368;6.140;2023-05-10T05:15:10;90.43;;;36.25;;
15806;SDS011;8005;51.368;6.140;2023-05-10T05:16:42;85.28;;;34.38;;
15806;SDS011;8005;51.368;6.140;2023-05-10T05:18:14;84.57;;;34.57;;
15806;SDS011;8005;51.368;6.140;2023-05-10T05:19:46;83.85;;;34.80;;
15806;SDS011;8005;51.368;6.140;2023-05-10T05:21:18;87.90;;;35.65;;
15806;SDS011;8005;51.368;6.140;2023-05-10T05:24:22;92.47;;;35.55;;
15806;SDS011;8005;51.368;6.140;2023-05-10T05:25:54;86.60;;;35.30;;
15806;SDS011;8005;51.368;6.140;2023-05-10T05:27:26;82.10;;;33.72;;
15806;SDS011;8005;51.368;6.140;2023-05-10T05:28:59;84.30;;;34.17;;
15806;SDS011;8005;51.368;6.140;2023-05-10T05:30:31;84.97;;;34.80;;
15806;SDS011;8005;51.368;6.140;2023-05-10T05:32:03;87.60;;;34.70;;
15806;SDS011;8005;51.368;6.140;2023-05-10T05:33:35;88.88;;;34.65;;
15806;SDS011;8005;51.368;6.140;2023-05-10T05:35:07;89.40;;;35.88;;
15806;SDS011;8005;51.368;6.140;2023-05-10T05:36:39;83.40;;;35.13;;
15806;SDS011;8005;51.368;6.140;2023-05-10T05:38:11;89.10;;;35.40;;
15806;SDS011;8005;51.368;6.140;2023-05-10T05:39:43;90.13;;;35.23;;
15806;SDS011;8005;51.368;6.140;2023-05-10T05:41:15;87.90;;;34.97;;
15806;SDS011;8005;51.368;6.140;2023-05-10T05:42:47;96.78;;;37.03;;
15806;SDS011;8005;51.368;6.140;2023-05-10T05:44:19;89.60;;;36.55;;
15806;SDS011;8005;51.368;6.140;2023-05-10T05:45:54;90.28;;;34.03;;
15806;SDS011;8005;51.368;6.140;2023-05-10T05:47:26;102.88;;;37.47;;
15806;SDS011;8005;51.368;6.140;2023-05-10T05:48:58;86.97;;;34.27;;
15806;SDS011;8005;51.368;6.140;2023-05-10T05:50:30;90.18;;;34.88;;
15806;SDS011;8005;51.368;6.140;2023-05-10T05:52:03;89.95;;;33.65;;
15806;SDS011;8005;51.368;6.140;2023-05-10T05:53:35;94.05;;;36.00;;
15806;SDS011;8005;51.368;6.140;2023-05-10T05:55:07;93.20;;;36.45;;
15806;SDS011;8005;51.368;6.140;2023-05-10T05:56:39;100.63;;;37.30;;
15806;SDS011;8005;51.368;6.140;2023-05-10T05:58:11;95.53;;;35.92;;
15806;SDS011;8005;51.368;6.140;2023-05-10T05:59:43;90.47;;;34.55;;
15806;SDS011;8005;51.368;6.140;2023-05-10T06:01:16;102.90;;;35.83;;
15806;SDS011;8005;51.368;6.140;2023-05-10T06:02:48;103.75;;;37.30;;
15806;SDS011;8005;51.368;6.140;2023-05-10T06:04:20;102.70;;;37.13;;
15806;SDS011;8005;51.368;6.140;2023-05-10T06:05:52;99.85;;;36.88;;
15806;SDS011;8005;51.368;6.140;2023-05-10T06:07:24;93.00;;;36.08;;
15806;SDS011;8005;51.368;6.140;2023-05-10T06:08:56;100.25;;;36.78;;
15806;SDS011;8005;51.368;6.140;2023-05-10T06:10:28;98.75;;;37.47;;
15806;SDS011;8005;51.368;6.140;2023-05-10T06:12:02;100.93;;;36.85;;
15806;SDS011;8005;51.368;6.140;2023-05-10T06:13:34;97.45;;;35.65;;
15806;SDS011;8005;51.368;6.140;2023-05-10T06:15:06;91.95;;;34.83;;
15806;SDS011;8005;51.368;6.140;2023-05-10T06:18:12;89.85;;;34.42;;
15806;SDS011;8005;51.368;6.140;2023-05-10T06:19:44;102.78;;;36.90;;
15806;SDS011;8005;51.368;6.140;2023-05-10T06:21:16;91.53;;;35.33;;
15806;SDS011;8005;51.368;6.140;2023-05-10T06:22:48;100.68;;;35.22;;
15806;SDS011;8005;51.368;6.140;2023-05-10T06:24:20;99.78;;;35.35;;
15806;SDS011;8005;51.368;6.140;2023-05-10T06:25:52;86.55;;;34.15;;
15806;SDS011;8005;51.368;6.140;2023-05-10T06:27:24;97.87;;;35.90;;
15806;SDS011;8005;51.368;6.140;2023-05-10T06:28:56;105.68;;;39.65;;
15806;SDS011;8005;51.368;6.140;2023-05-10T06:30:28;96.77;;;34.77;;
15806;SDS011;8005;51.368;6.140;2023-05-10T06:32:00;87.35;;;35.33;;
15806;SDS011;8005;51.368;6.140;2023-05-10T06:33:33;100.30;;;36.88;;
15806;SDS011;8005;51.368;6.140;2023-05-10T06:35:05;91.72;;;35.13;;
15806;SDS011;8005;51.368;6.140;2023-05-10T06:36:38;88.28;;;35.15;;
15806;SDS011;8005;51.368;6.140;2023-05-10T06:38:10;92.25;;;35.92;;
15806;SDS011;8005;51.368;6.140;2023-05-10T06:39:42;85.75;;;35.30;;
15806;SDS011;8005;51.368;6.140;2023-05-10T06:41:14;91.60;;;34.47;;
15806;SDS011;8005;51.368;6.140;2023-05-10T06:42:46;100.97;;;34.53;;
15806;SDS011;8005;51.368;6.140;2023-05-10T06:44:19;85.70;;;33.50;;
15806;SDS011;8005;51.368;6.140;2023-05-10T06:45:51;77.03;;;32.90;;
15806;SDS011;8005;51.368;6.140;2023-05-10T06:47:23;78.55;;;32.42;;
15806;SDS011;8005;51.368;6.140;2023-05-10T06:48:55;79.90;;;33.33;;
15806;SDS011;8005;51.368;6.140;2023-05-10T06:50:27;78.68;;;34.08;;
15806;SDS011;8005;51.368;6.140;2023-05-10T06:51:59;72.70;;;31.17;;
15806;SDS011;8005;51.368;6.140;2023-05-10T06:53:31;80.85;;;32.03;;
15806;SDS011;8005;51.368;6.140;2023-05-10T06:55:04;69.50;;;32.45;;
15806;SDS011;8005;51.368;6.140;2023-05-10T06:56:39;79.72;;;32.38;;
15806;SDS011;8005;51.368;6.140;2023-05-10T06:58:11;64.85;;;30.85;;
15806;SDS011;8005;51.368;6.140;2023-05-10T06:59:44;66.68;;;30.60;;
15806;SDS011;8005;51.368;6.140;2023-05-10T07:01:16;66.17;;;31.40;;
15806;SDS011;8005;51.368;6.140;2023-05-10T07:02:48;63.92;;;31.08;;
15806;SDS011;8005;51.368;6.140;2023-05-10T07:04:20;65.60;;;30.90;;
15806;SDS011;8005;51.368;6.140;2023-05-10T07:05:52;65.68;;;31.65;;
15806;SDS011;8005;51.368;6.140;2023-05-10T07:07:24;66.45;;;31.40;;
15806;SDS011;8005;51.368;6.140;2023-05-10T07:08:56;70.97;;;32.17;;
15806;SDS011;8005;51.368;6.140;2023-05-10T07:10:28;63.38;;;30.58;;
15806;SDS011;8005;51.368;6.140;2023-05-10T07:12:01;67.90;;;29.60;;
15806;SDS011;8005;51.368;6.140;2023-05-10T07:13:33;62.05;;;30.50;;
15806;SDS011;8005;51.368;6.140;2023-05-10T07:15:06;64.22;;;29.95;;
15806;SDS011;8005;51.368;6.140;2023-05-10T07:18:11;62.78;;;28.80;;
15806;SDS011;8005;51.368;6.140;2023-05-10T07:19:43;59.85;;;30.52;;
15806;SDS011;8005;51.368;6.140;2023-05-10T07:21:15;59.00;;;27.90;;
15806;SDS011;8005;51.368;6.140;2023-05-10T07:22:47;58.63;;;27.90;;
15806;SDS011;8005;51.368;6.140;2023-05-10T07:24:19;58.33;;;29.80;;
15806;SDS011;8005;51.368;6.140;2023-05-10T07:25:51;59.38;;;29.38;;
15806;SDS011;8005;51.368;6.140;2023-05-10T07:28:55;55.95;;;28.50;;
15806;SDS011;8005;51.368;6.140;2023-05-10T07:30:27;54.33;;;27.90;;
15806;SDS011;8005;51.368;6.140;2023-05-10T07:31:59;57.42;;;28.75;;
15806;SDS011;8005;51.368;6.140;2023-05-10T07:33:31;54.15;;;28.58;;
15806;SDS011;8005;51.368;6.140;2023-05-10T07:35:03;51.57;;;26.77;;
15806;SDS011;8005;51.368;6.140;2023-05-10T07:36:36;43.20;;;23.65;;
15806;SDS011;8005;51.368;6.140;2023-05-10T07:38:08;43.25;;;25.17;;
15806;SDS011;8005;51.368;6.140;2023-05-10T07:39:40;49.70;;;24.60;;
15806;SDS011;8005;51.368;6.140;2023-05-10T07:41:12;48.00;;;25.35;;
15806;SDS011;8005;51.368;6.140;2023-05-10T07:42:44;43.90;;;22.52;;
15806;SDS011;8005;51.368;6.140;2023-05-10T07:44:16;46.10;;;24.20;;
15806;SDS011;8005;51.368;6.140;2023-05-10T07:45:50;39.17;;;21.55;;
15806;SDS011;8005;51.368;6.140;2023-05-10T07:47:26;42.17;;;22.52;;
15806;SDS011;8005;51.368;6.140;2023-05-10T07:48:58;41.47;;;22.33;;
15806;SDS011;8005;51.368;6.140;2023-05-10T07:50:30;43.97;;;22.23;;
15806;SDS011;8005;51.368;6.140;2023-05-10T07:52:03;48.80;;;23.77;;
15806;SDS011;8005;51.368;6.140;2023-05-10T07:53:35;44.97;;;24.00;;
15806;SDS011;8005;51.368;6.140;2023-05-10T07:55:07;46.38;;;23.13;;
15806;SDS011;8005;51.368;6.140;2023-05-10T07:56:39;44.78;;;22.75;;
15806;SDS011;8005;51.368;6.140;2023-05-10T07:58:16;42.80;;;22.73;;
15806;SDS011;8005;51.368;6.140;2023-05-10T07:59:48;43.47;;;23.13;;
15806;SDS011;8005;51.368;6.140;2023-05-10T08:01:20;43.75;;;24.00;;
15806;SDS011;8005;51.368;6.140;2023-05-10T08:02:52;41.35;;;22.02;;
15806;SDS011;8005;51.368;6.140;2023-05-10T08:04:24;42.75;;;22.52;;
15806;SDS011;8005;51.368;6.140;2023-05-10T08:05:56;44.83;;;24.83;;
15806;SDS011;8005;51.368;6.140;2023-05-10T08:07:28;41.73;;;23.87;;
15806;SDS011;8005;51.368;6.140;2023-05-10T08:09:00;44.10;;;23.30;;
15806;SDS011;8005;51.368;6.140;2023-05-10T08:10:32;41.28;;;22.83;;
15806;SDS011;8005;51.368;6.140;2023-05-10T08:12:04;40.57;;;23.43;;
15806;SDS011;8005;51.368;6.140;2023-05-10T08:13:37;43.60;;;23.77;;
15806;SDS011;8005;51.368;6.140;2023-05-10T08:15:09;39.38;;;22.33;;
15806;SDS011;8005;51.368;6.140;2023-05-10T08:16:41;40.30;;;22.30;;
15806;SDS011;8005;51.368;6.140;2023-05-10T08:18:13;38.30;;;22.63;;
15806;SDS011;8005;51.368;6.140;2023-05-10T08:19:45;44.80;;;24.45;;
15806;SDS011;8005;51.368;6.140;2023-05-10T08:21:17;40.80;;;23.37;;
15806;SDS011;8005;51.368;6.140;2023-05-10T08:22:50;40.58;;;21.95;;
15806;SDS011;8005;51.368;6.140;2023-05-10T08:24:22;42.38;;;22.65;;
15806;SDS011;8005;51.368;6.140;2023-05-10T08:25:54;42.17;;;22.17;;
15806;SDS011;8005;51.368;6.140;2023-05-10T08:27:26;44.58;;;22.13;;
15806;SDS011;8005;51.368;6.140;2023-05-10T08:28:58;39.15;;;22.95;;
15806;SDS011;8005;51.368;6.140;2023-05-10T08:30:30;41.45;;;24.08;;
15806;SDS011;8005;51.368;6.140;2023-05-10T08:32:02;42.35;;;23.13;;
15806;SDS011;8005;51.368;6.140;2023-05-10T08:33:34;44.70;;;23.20;;
15806;SDS011;8005;51.368;6.140;2023-05-10T08:35:08;40.05;;;22.42;;
15806;SDS011;8005;51.368;6.140;2023-05-10T08:36:46;41.17;;;23.10;;
15806;SDS011;8005;51.368;6.140;2023-05-10T08:38:21;38.80;;;21.13;;
15806;SDS011;8005;51.368;6.140;2023-05-10T08:39:53;40.58;;;23.50;;
15806;SDS011;8005;51.368;6.140;2023-05-10T08:41:25;42.53;;;22.90;;
15806;SDS011;8005;51.368;6.140;2023-05-10T08:43:10;50.88;;;24.38;;
15806;SDS011;8005;51.368;6.140;2023-05-10T08:44:44;40.88;;;22.65;;
15806;SDS011;8005;51.368;6.140;2023-05-10T08:46:20;44.13;;;21.95;;
15806;SDS011;8005;51.368;6.140;2023-05-10T08:47:53;42.65;;;22.88;;
15806;SDS011;8005;51.368;6.140;2023-05-10T08:49:25;41.78;;;22.58;;
15806;SDS011;8005;51.368;6.140;2023-05-10T08:50:59;38.30;;;22.45;;
15806;SDS011;8005;51.368;6.140;2023-05-10T08:52:32;43.10;;;22.40;;
15806;SDS011;8005;51.368;6.140;2023-05-10T08:54:04;37.15;;;21.95;;
15806;SDS011;8005;51.368;6.140;2023-05-10T08:55:37;40.47;;;22.90;;
15806;SDS011;8005;51.368;6.140;2023-05-10T08:57:10;39.92;;;23.23;;
15806;SDS011;8005;51.368;6.140;2023-05-10T08:58:42;40.53;;;23.17;;
15806;SDS011;8005;51.368;6.140;2023-05-10T09:00:14;38.63;;;22.33;;
15806;SDS011;8005;51.368;6.140;2023-05-10T09:01:47;43.08;;;22.27;;
15806;SDS011;8005;51.368;6.140;2023-05-10T09:03:20;40.95;;;21.80;;
15806;SDS011;8005;51.368;6.140;2023-05-10T09:04:53;42.28;;;22.67;;
15806;SDS011;8005;51.368;6.140;2023-05-10T09:06:25;39.85;;;24.27;;
15806;SDS011;8005;51.368;6.140;2023-05-10T09:07:57;45.53;;;23.08;;
15806;SDS011;8005;51.368;6.140;2023-05-10T09:09:31;43.33;;;24.35;;
15806;SDS011;8005;51.368;6.140;2023-05-10T09:11:04;37.35;;;21.58;;
15806;SDS011;8005;51.368;6.140;2023-05-10T09:12:36;42.70;;;22.48;;
15806;SDS011;8005;51.368;6.140;2023-05-10T09:14:08;34.67;;;20.90;;
15806;SDS011;8005;51.368;6.140;2023-05-10T09:15:41;34.53;;;20.73;;
15806;SDS011;8005;51.368;6.140;2023-05-10T09:17:13;34.88;;;20.45;;
15806;SDS011;8005;51.368;6.140;2023-05-10T09:18:45;34.08;;;20.67;;
15806;SDS011;8005;51.368;6.140;2023-05-10T09:20:17;35.75;;;20.98;;
15806;SDS011;8005;51.368;6.140;2023-05-10T09:21:49;36.70;;;20.05;;
15806;SDS011;8005;51.368;6.140;2023-05-10T09:23:22;33.70;;;20.13;;
15806;SDS011;8005;51.368;6.140;2023-05-10T09:26:46;30.23;;;16.60;;
15806;SDS011;8005;51.368;6.140;2023-05-10T09:28:20;34.03;;;19.35;;
15806;SDS011;8005;51.368;6.140;2023-05-10T09:29:52;32.08;;;18.17;;
15806;SDS011;8005;51.368;6.140;2023-05-10T09:31:45;30.58;;;16.95;;
15806;SDS011;8005;51.368;6.140;2023-05-10T09:33:23;29.75;;;17.48;;
15806;SDS011;8005;51.368;6.140;2023-05-10T09:34:55;27.40;;;16.38;;
15806;SDS011;8005;51.368;6.140;2023-05-10T09:36:27;27.73;;;17.02;;
15806;SDS011;8005;51.368;6.140;2023-05-10T09:38:01;28.48;;;16.83;;
15806;SDS011;8005;51.368;6.140;2023-05-10T09:39:37;29.05;;;16.83;;
15806;SDS011;8005;51.368;6.140;2023-05-10T09:41:15;30.70;;;17.50;;
15806;SDS011;8005;51.368;6.140;2023-05-10T09:42:52;28.33;;;18.15;;
15806;SDS011;8005;51.368;6.140;2023-05-10T09:44:28;25.63;;;16.75;;